createdAt,value
2023-03-17T00:00:49.199Z,94762.00
2023-03-17T00:04:49.373Z,94758.00
2023-03-17T00:08:49.567Z,94758.00
2023-03-17T00:12:49.693Z,94756.00
2023-03-17T00:16:49.985Z,94754.00
2023-03-17T00:20:50.054Z,94748.00
2023-03-17T00:24:50.234Z,94740.00
2023-03-17T00:28:50.405Z,94734.00
2023-03-17T00:32:50.644Z,94728.00
2023-03-17T00:36:50.859Z,94726.00
2023-03-17T00:40:50.960Z,94720.00
2023-03-17T00:44:51.102Z,94718.00
2023-03-17T00:48:51.284Z,94722.00
2023-03-17T00:52:51.482Z,94718.00
2023-03-17T00:56:51.626Z,94713.00
2023-03-17T01:00:52.418Z,94713.00
2023-03-17T01:04:59.830Z,94717.00
2023-03-17T01:08:52.923Z,94720.00
2023-03-17T01:12:51.861Z,94715.00
2023-03-17T01:16:52.043Z,94715.00
2023-03-17T01:20:52.134Z,94713.00
2023-03-17T01:24:52.264Z,94705.00
2023-03-17T01:28:52.443Z,94705.00
2023-03-17T01:32:52.667Z,94705.00
2023-03-17T01:36:52.828Z,94703.00
2023-03-17T01:40:53.028Z,94703.00
2023-03-17T01:44:53.250Z,94697.00
2023-03-17T01:48:53.457Z,94689.00
2023-03-17T01:52:54.358Z,94685.00
2023-03-17T01:56:53.826Z,94691.00
2023-03-17T02:00:53.988Z,94689.00
2023-03-17T02:04:54.133Z,94689.00
2023-03-17T02:08:54.339Z,94685.00
2023-03-17T02:12:54.520Z,94685.00
2023-03-17T02:16:54.784Z,94681.00
2023-03-17T02:20:54.935Z,94681.00
2023-03-17T02:24:55.120Z,94683.00
2023-03-17T02:28:55.287Z,94685.00
2023-03-17T02:32:55.532Z,94683.00
2023-03-17T02:36:55.713Z,94681.00
2023-03-17T02:40:55.886Z,94681.00
2023-03-17T02:44:56.114Z,94681.00
2023-03-17T02:48:56.395Z,94685.00
2023-03-17T02:52:56.452Z,94687.00
2023-03-17T02:56:56.644Z,94687.00
2023-03-17T03:00:56.858Z,94687.00
2023-03-17T03:04:57.089Z,94687.00
2023-03-17T03:08:57.308Z,94681.00
2023-03-17T03:12:57.487Z,94679.00
2023-03-17T03:16:57.661Z,94675.00
2023-03-17T03:20:57.851Z,94677.00
2023-03-17T03:24:58.081Z,94673.00
2023-03-17T03:28:58.292Z,94675.00
2023-03-17T03:32:58.511Z,94675.00
2023-03-17T03:36:58.676Z,94675.00
2023-03-17T03:40:58.864Z,94677.00
2023-03-17T03:44:59.076Z,94681.00
2023-03-17T03:48:59.150Z,94683.00
2023-03-17T03:52:59.345Z,94681.00
2023-03-17T03:56:59.469Z,94689.00
2023-03-17T04:00:59.641Z,94683.00
2023-03-17T04:04:59.901Z,94683.00
2023-03-17T04:09:00.051Z,94683.00
2023-03-17T04:13:00.203Z,94681.00
2023-03-17T04:17:00.383Z,94679.00
2023-03-17T04:21:00.657Z,94670.00
2023-03-17T04:25:00.803Z,94662.00
2023-03-17T04:29:01.077Z,94652.00
2023-03-17T04:33:01.233Z,94650.00
2023-03-17T04:37:01.296Z,94658.00
2023-03-17T04:41:01.446Z,94652.00
2023-03-17T04:45:01.530Z,94640.00
2023-03-17T04:49:01.690Z,94654.00
2023-03-17T04:53:01.863Z,94654.00
2023-03-17T04:57:02.004Z,94650.00
2023-03-17T05:01:02.324Z,94650.00
2023-03-17T05:05:02.365Z,94654.00
2023-03-17T05:09:02.536Z,94640.00
2023-03-17T05:13:02.725Z,94636.00
2023-03-17T05:17:02.781Z,94632.00
2023-03-17T05:21:02.955Z,94632.00
2023-03-17T05:25:03.079Z,94628.00
2023-03-17T05:29:03.254Z,94630.00
2023-03-17T05:33:03.470Z,94632.00
2023-03-17T05:37:03.512Z,94636.00
2023-03-17T05:41:04.402Z,94638.00
2023-03-17T05:45:03.861Z,94636.00
2023-03-17T05:49:04.033Z,94638.00
2023-03-17T05:53:04.110Z,94636.00
2023-03-17T05:57:04.248Z,94636.00
2023-03-17T06:01:04.426Z,94640.00
2023-03-17T06:05:04.628Z,94632.00
2023-03-17T06:09:04.778Z,94632.00
2023-03-17T06:13:04.964Z,94630.00
2023-03-17T06:17:05.131Z,94634.00
2023-03-17T06:21:05.227Z,94632.00
2023-03-17T06:25:05.483Z,94634.00
2023-03-17T06:29:05.613Z,94640.00
2023-03-17T06:33:05.907Z,94628.00
2023-03-17T06:37:11.874Z,94628.00
2023-03-17T06:41:06.094Z,94624.00
2023-03-17T06:45:08.954Z,94622.00
2023-03-17T06:49:06.041Z,94624.00
2023-03-17T06:53:06.211Z,94624.00
2023-03-17T06:57:06.081Z,94626.00
2023-03-17T07:01:05.972Z,94624.00
2023-03-17T07:05:06.367Z,94622.00
2023-03-17T07:09:05.988Z,94620.00
2023-03-17T07:13:05.849Z,94620.00
2023-03-17T07:17:05.739Z,94618.00
2023-03-17T07:21:05.834Z,94620.00
2023-03-17T07:29:24.955Z,94624.00
2023-03-17T07:33:25.942Z,94622.00
2023-03-17T07:37:25.379Z,94618.00
2023-03-17T07:41:25.245Z,94617.00
2023-03-17T07:45:25.499Z,94609.00
2023-03-17T07:49:40.441Z,94609.00
2023-03-17T07:53:26.476Z,94609.00
2023-03-17T07:57:25.542Z,94613.00
2023-03-17T08:01:25.519Z,94609.00
2023-03-17T08:05:25.874Z,94601.00
2023-03-17T08:09:25.818Z,94599.00
2023-03-17T08:13:26.207Z,94591.00
2023-03-17T08:17:26.092Z,94589.00
2023-03-17T08:21:26.204Z,94585.00
2023-03-17T08:25:26.296Z,94585.00
2023-03-17T08:29:26.432Z,94577.00
2023-03-17T08:33:26.800Z,94573.00
2023-03-17T08:37:26.955Z,94564.00
2023-03-17T08:41:27.080Z,94562.00
2023-03-17T08:45:27.390Z,94558.00
2023-03-17T08:49:27.649Z,94546.00
2023-03-17T08:53:27.844Z,94544.00
2023-03-17T08:57:27.816Z,94536.00
2023-03-17T09:01:28.172Z,94530.00
2023-03-17T09:05:28.560Z,94523.00
2023-03-17T09:09:29.127Z,94511.00
2023-03-17T09:13:28.408Z,94501.00
2023-03-17T09:17:28.655Z,94495.00
2023-03-17T09:21:28.825Z,94493.00
2023-03-17T09:25:28.901Z,94491.00
2023-03-17T09:29:29.763Z,94487.00
2023-03-17T09:33:29.148Z,94483.00
2023-03-17T09:37:29.212Z,94481.00
2023-03-17T09:41:29.227Z,94481.00
2023-03-17T09:45:30.417Z,94477.00
2023-03-17T09:49:29.775Z,94476.00
2023-03-17T09:53:29.636Z,94466.00
2023-03-17T09:57:29.704Z,94460.00
2023-03-17T10:01:29.853Z,94452.00
2023-03-17T10:05:30.304Z,94444.00
2023-03-17T10:09:29.922Z,94434.00
2023-03-17T10:13:30.134Z,94432.00
2023-03-17T10:17:30.005Z,94425.00
2023-03-17T10:21:30.137Z,94423.00
2023-03-17T10:25:30.732Z,94413.00
2023-03-17T10:29:30.352Z,94405.00
2023-03-17T10:33:30.384Z,94399.00
2023-03-17T10:37:30.779Z,94393.00
2023-03-17T10:41:30.467Z,94378.00
2023-03-17T10:45:30.514Z,94372.00
2023-03-17T10:49:30.506Z,94366.00
2023-03-17T10:53:30.781Z,94360.00
2023-03-17T10:57:31.947Z,94352.00
2023-03-17T11:01:30.819Z,94346.00
2023-03-17T11:05:30.805Z,94342.00
2023-03-17T11:09:30.877Z,94337.00
2023-03-17T11:13:30.969Z,94331.00
2023-03-17T11:17:31.403Z,94319.00
2023-03-17T11:21:32.131Z,94311.00
2023-03-17T11:25:33.222Z,94303.00
2023-03-17T11:29:31.364Z,94295.00
2023-03-17T11:33:31.371Z,94291.00
2023-03-17T11:37:31.391Z,94283.00
2023-03-17T11:41:31.375Z,94278.00
2023-03-17T11:45:31.290Z,94278.00
2023-03-17T11:49:31.311Z,94274.00
2023-03-17T11:53:31.378Z,94266.00
2023-03-17T11:57:32.188Z,94260.00
2023-03-17T12:01:31.534Z,94252.00
2023-03-17T12:05:31.512Z,94248.00
2023-03-17T12:09:31.463Z,94246.00
2023-03-17T12:13:31.405Z,94242.00
2023-03-17T12:17:31.492Z,94235.00
2023-03-17T12:21:31.440Z,94229.00
2023-03-17T12:25:33.773Z,94221.00
2023-03-17T12:29:31.431Z,94217.00
2023-03-17T12:33:31.430Z,94203.00
2023-03-17T12:37:31.418Z,94199.00
2023-03-17T12:41:31.500Z,94201.00
2023-03-17T12:45:31.672Z,94197.00
2023-03-17T12:49:31.502Z,94193.00
2023-03-17T12:53:31.602Z,94188.00
2023-03-17T12:57:31.702Z,94182.00
2023-03-17T13:01:31.752Z,94174.00
2023-03-17T13:05:31.946Z,94178.00
2023-03-17T13:09:31.990Z,94168.00
2023-03-17T13:13:31.701Z,94158.00
2023-03-17T13:17:31.766Z,94152.00
2023-03-17T13:21:35.282Z,94148.00
2023-03-17T13:25:32.205Z,94144.00
2023-03-17T13:29:31.809Z,94141.00
2023-03-17T13:33:31.790Z,94135.00
2023-03-17T13:37:31.685Z,94119.00
2023-03-17T13:41:31.648Z,94117.00
2023-03-17T13:45:32.011Z,94115.00
2023-03-17T13:49:31.677Z,94107.00
2023-03-17T13:53:31.652Z,94103.00
2023-03-17T13:57:31.507Z,94099.00
2023-03-17T14:01:31.558Z,94097.00
2023-03-17T14:05:31.629Z,94092.00
2023-03-17T14:09:31.355Z,94094.00
2023-03-17T14:13:31.393Z,94094.00
2023-03-17T14:17:31.308Z,94086.00
2023-03-17T14:21:31.435Z,94076.00
2023-03-17T14:25:31.599Z,94070.00
2023-03-17T14:29:31.489Z,94072.00
2023-03-17T14:33:31.671Z,94068.00
2023-03-17T14:37:31.751Z,94066.00
2023-03-17T14:41:33.517Z,94062.00
2023-03-17T14:45:31.972Z,94058.00
2023-03-17T14:49:31.818Z,94054.00
2023-03-17T14:53:31.872Z,94052.00
2023-03-17T14:57:32.345Z,94049.00
2023-03-17T15:01:32.063Z,94041.00
2023-03-17T15:05:32.382Z,94041.00
2023-03-17T15:09:32.061Z,94039.00
2023-03-17T15:13:32.134Z,94035.00
2023-03-17T15:17:32.118Z,94039.00
2023-03-17T15:21:32.151Z,94033.00
2023-03-17T15:25:32.160Z,94031.00
2023-03-17T15:29:32.229Z,94029.00
2023-03-17T15:33:32.274Z,94029.00
2023-03-17T15:37:32.277Z,94035.00
2023-03-17T15:41:32.310Z,94027.00
2023-03-17T15:45:32.433Z,94027.00
2023-03-17T15:49:32.497Z,94031.00
2023-03-17T15:53:32.470Z,94031.00
2023-03-17T15:57:32.525Z,94029.00
2023-03-17T16:01:32.657Z,94037.00
2023-03-17T16:05:32.505Z,94037.00
2023-03-17T16:09:32.452Z,94033.00
2023-03-17T16:13:32.489Z,94035.00
2023-03-17T16:17:32.532Z,94035.00
2023-03-17T16:21:32.531Z,94037.00
2023-03-17T16:25:32.556Z,94043.00
2023-03-17T16:29:32.532Z,94050.00
2023-03-17T16:33:32.558Z,94054.00
2023-03-17T16:37:32.537Z,94052.00
2023-03-17T16:41:32.517Z,94062.00
2023-03-17T16:45:32.524Z,94068.00
2023-03-17T16:49:32.587Z,94070.00
2023-03-17T16:53:32.600Z,94074.00
2023-03-17T16:57:32.658Z,94076.00
2023-03-17T17:01:32.704Z,94086.00
2023-03-17T17:05:32.663Z,94090.00
2023-03-17T17:09:32.675Z,94099.00
2023-03-17T17:13:32.641Z,94090.00
2023-03-17T17:17:32.660Z,94097.00
2023-03-17T17:21:32.762Z,94096.00
2023-03-17T17:25:33.056Z,94096.00
2023-03-17T17:29:32.712Z,94109.00
2023-03-17T17:33:32.774Z,94105.00
2023-03-17T17:37:32.728Z,94111.00
2023-03-17T17:41:32.799Z,94109.00
2023-03-17T17:45:32.780Z,94107.00
2023-03-17T17:49:32.746Z,94105.00
2023-03-17T17:53:32.741Z,94115.00
2023-03-17T17:57:32.733Z,94103.00
2023-03-17T18:01:32.777Z,94111.00
2023-03-17T18:05:32.768Z,94113.00
2023-03-17T18:09:32.744Z,94105.00
2023-03-17T18:13:32.735Z,94119.00
2023-03-17T18:17:32.761Z,94121.00
2023-03-17T18:21:32.781Z,94135.00
2023-03-17T18:25:32.724Z,94135.00
2023-03-17T18:29:32.674Z,94127.00
2023-03-17T18:33:32.768Z,94144.00
2023-03-17T18:37:32.762Z,94150.00
2023-03-17T18:41:32.740Z,94150.00
2023-03-17T18:45:32.813Z,94154.00
2023-03-17T18:49:32.742Z,94168.00
2023-03-17T18:53:32.867Z,94172.00
2023-03-17T18:57:32.850Z,94172.00
2023-03-17T19:01:32.804Z,94178.00
2023-03-17T19:05:32.853Z,94186.00
2023-03-17T19:09:32.921Z,94191.00
2023-03-17T19:13:32.899Z,94195.00
2023-03-17T19:17:33.025Z,94186.00
2023-03-17T19:21:32.939Z,94189.00
2023-03-17T19:25:33.010Z,94180.00
2023-03-17T19:29:33.325Z,94184.00
2023-03-17T19:33:33.286Z,94189.00
2023-03-17T19:37:33.041Z,94188.00
2023-03-17T19:41:33.117Z,94189.00
2023-03-17T19:45:33.314Z,94201.00
2023-03-17T19:49:33.104Z,94203.00
2023-03-17T19:53:33.075Z,94211.00
2023-03-17T19:57:33.157Z,94201.00
2023-03-17T20:01:33.192Z,94205.00
2023-03-17T20:05:33.203Z,94209.00
2023-03-17T20:09:33.236Z,94211.00
2023-03-17T20:13:33.229Z,94211.00
2023-03-17T20:17:33.270Z,94213.00
2023-03-17T20:21:33.367Z,94211.00
2023-03-17T20:25:33.835Z,94213.00
2023-03-17T20:29:33.413Z,94213.00
2023-03-17T20:33:33.619Z,94219.00
2023-03-17T20:37:33.463Z,94219.00
2023-03-17T20:41:33.606Z,94211.00
2023-03-17T20:45:33.602Z,94213.00
2023-03-17T20:49:33.680Z,94213.00
2023-03-17T20:53:33.685Z,94213.00
2023-03-17T20:57:33.785Z,94221.00
2023-03-17T21:01:33.832Z,94231.00
2023-03-17T21:05:33.799Z,94231.00
2023-03-17T21:09:33.769Z,94231.00
2023-03-17T21:13:33.848Z,94235.00
2023-03-17T21:17:33.811Z,94236.00
2023-03-17T21:21:33.899Z,94242.00
2023-03-17T21:25:33.869Z,94244.00
2023-03-17T21:29:33.920Z,94246.00
2023-03-17T21:33:33.958Z,94248.00
2023-03-17T21:37:34.030Z,94250.00
2023-03-17T21:41:34.146Z,94246.00
2023-03-17T21:45:34.240Z,94248.00
2023-03-17T21:49:34.259Z,94252.00
2023-03-17T21:53:34.350Z,94254.00
2023-03-17T21:57:34.420Z,94260.00
2023-03-17T22:01:34.549Z,94258.00
2023-03-17T22:05:34.504Z,94264.00
2023-03-17T22:09:34.591Z,94270.00
2023-03-17T22:13:34.657Z,94274.00
2023-03-17T22:17:34.780Z,94274.00
2023-03-17T22:21:34.808Z,94274.00
2023-03-17T22:25:34.881Z,94282.00
2023-03-17T22:29:35.026Z,94283.00
2023-03-17T22:33:35.093Z,94283.00
2023-03-17T22:37:35.132Z,94285.00
2023-03-17T22:41:35.207Z,94282.00
2023-03-17T22:45:35.372Z,94283.00
2023-03-17T22:49:35.335Z,94285.00
2023-03-17T22:53:35.467Z,94293.00
2023-03-17T22:57:35.492Z,94297.00
2023-03-17T23:01:35.681Z,94299.00
2023-03-17T23:05:35.691Z,94305.00
2023-03-17T23:09:35.760Z,94307.00
2023-03-17T23:13:35.898Z,94307.00
2023-03-17T23:17:35.945Z,94311.00
2023-03-17T23:21:35.991Z,94319.00
2023-03-17T23:25:36.101Z,94325.00
2023-03-17T23:29:36.186Z,94329.00
2023-03-17T23:33:36.325Z,94327.00
2023-03-17T23:37:36.421Z,94323.00
2023-03-17T23:41:36.462Z,94319.00
2023-03-17T23:45:36.530Z,94331.00
2023-03-17T23:49:36.617Z,94335.00
2023-03-17T23:53:36.685Z,94342.00
2023-03-17T23:57:36.840Z,94346.00
